sensor_id;sensor_type;location;lat;lon;timestamp;pressure;altitude;pressure_sealevel;temperature;humidity
16255;BME280;8235;52.198;9.904;2022-08-19T00:00:35;100494.91;;;21.13;80.70
16255;BME280;8235;52.198;9.904;2022-08-19T00:03:03;100488.81;;;21.11;80.75
16255;BME280;8235;52.198;9.904;2022-08-19T00:05:30;100481.88;;;21.09;80.75
16255;BME280;8235;52.198;9.904;2022-08-19T00:07:57;100474.91;;;21.06;80.97
16255;BME280;8235;52.198;9.904;2022-08-19T00:10:24;100468.16;;;21.02;81.00
16255;BME280;8235;52.198;9.904;2022-08-19T00:12:51;100470.34;;;20.99;80.92
16255;BME280;8235;52.198;9.904;2022-08-19T00:15:20;100463.59;;;20.95;81.12
16255;BME280;8235;52.198;9.904;2022-08-19T00:17:47;100466.78;;;20.90;81.21
16255;BME280;8235;52.198;9.904;2022-08-19T00:20:18;100460.00;;;20.86;81.17
16255;BME280;8235;52.198;9.904;2022-08-19T00:22:45;100465.94;;;20.82;81.58
16255;BME280;8235;52.198;9.904;2022-08-19T00:25:12;100463.53;;;20.78;81.47
16255;BME280;8235;52.198;9.904;2022-08-19T00:27:39;100464.75;;;20.76;81.78
16255;BME280;8235;52.198;9.904;2022-08-19T00:30:07;100464.91;;;20.74;81.84
16255;BME280;8235;52.198;9.904;2022-08-19T00:32:35;100470.50;;;20.73;81.72
16255;BME280;8235;52.198;9.904;2022-08-19T00:35:03;100469.13;;;20.69;81.76
16255;BME280;8235;52.198;9.904;2022-08-19T00:37:31;100455.25;;;20.64;81.57
16255;BME280;8235;52.198;9.904;2022-08-19T00:39:59;100445.97;;;20.58;81.57
16255;BME280;8235;52.198;9.904;2022-08-19T00:42:27;100459.97;;;20.54;81.76
16255;BME280;8235;52.198;9.904;2022-08-19T00:44:54;100449.81;;;20.48;81.61
16255;BME280;8235;52.198;9.904;2022-08-19T00:47:21;100450.28;;;20.43;81.63
16255;BME280;8235;52.198;9.904;2022-08-19T00:49:48;100450.81;;;20.38;81.68
16255;BME280;8235;52.198;9.904;2022-08-19T00:52:20;100452.84;;;20.36;82.10
16255;BME280;8235;52.198;9.904;2022-08-19T00:54:48;100453.81;;;20.35;81.95
16255;BME280;8235;52.198;9.904;2022-08-19T00:57:18;100453.28;;;20.32;81.90
16255;BME280;8235;52.198;9.904;2022-08-19T00:59:47;100454.28;;;20.31;81.81
16255;BME280;8235;52.198;9.904;2022-08-19T01:02:20;100451.91;;;20.28;81.55
16255;BME280;8235;52.198;9.904;2022-08-19T01:04:47;100457.66;;;20.25;81.64
16255;BME280;8235;52.198;9.904;2022-08-19T01:07:13;100452.59;;;20.22;81.71
16255;BME280;8235;52.198;9.904;2022-08-19T01:09:40;100458.00;;;20.22;81.77
16255;BME280;8235;52.198;9.904;2022-08-19T01:12:08;100464.41;;;20.21;81.58
16255;BME280;8235;52.198;9.904;2022-08-19T01:14:36;100460.88;;;20.20;81.40
16255;BME280;8235;52.198;9.904;2022-08-19T01:17:06;100453.75;;;20.19;81.41
16255;BME280;8235;52.198;9.904;2022-08-19T01:19:36;100446.66;;;20.18;81.29
16255;BME280;8235;52.198;9.904;2022-08-19T01:22:06;100443.28;;;20.16;80.91
16255;BME280;8235;52.198;9.904;2022-08-19T01:24:36;100433.63;;;20.14;81.02
16255;BME280;8235;52.198;9.904;2022-08-19T01:27:04;100433.09;;;20.10;81.16
16255;BME280;8235;52.198;9.904;2022-08-19T01:29:31;100432.75;;;20.05;81.29
16255;BME280;8235;52.198;9.904;2022-08-19T01:31:58;100440.50;;;20.00;81.33
16255;BME280;8235;52.198;9.904;2022-08-19T01:34:25;100436.59;;;19.94;81.13
16255;BME280;8235;52.198;9.904;2022-08-19T01:36:51;100435.06;;;19.92;81.57
16255;BME280;8235;52.198;9.904;2022-08-19T01:39:24;100422.72;;;19.89;81.56
16255;BME280;8235;52.198;9.904;2022-08-19T01:41:52;100424.91;;;19.86;81.55
16255;BME280;8235;52.198;9.904;2022-08-19T01:44:20;100428.78;;;19.83;81.41
16255;BME280;8235;52.198;9.904;2022-08-19T01:46:50;100413.19;;;19.77;81.49
16255;BME280;8235;52.198;9.904;2022-08-19T01:49:19;100410.81;;;19.74;81.83
16255;BME280;8235;52.198;9.904;2022-08-19T01:51:46;100419.25;;;19.71;81.69
16255;BME280;8235;52.198;9.904;2022-08-19T01:54:14;100420.59;;;19.67;82.03
16255;BME280;8235;52.198;9.904;2022-08-19T01:56:41;100435.13;;;19.66;82.00
16255;BME280;8235;52.198;9.904;2022-08-19T01:59:12;100429.88;;;19.64;82.21
16255;BME280;8235;52.198;9.904;2022-08-19T02:01:40;100431.88;;;19.62;82.23
16255;BME280;8235;52.198;9.904;2022-08-19T02:04:07;100433.72;;;19.62;81.94
16255;BME280;8235;52.198;9.904;2022-08-19T02:06:34;100437.44;;;19.61;82.19
16255;BME280;8235;52.198;9.904;2022-08-19T02:09:03;100431.19;;;19.60;82.09
16255;BME280;8235;52.198;9.904;2022-08-19T02:11:32;100434.06;;;19.59;82.18
16255;BME280;8235;52.198;9.904;2022-08-19T02:14:01;100428.66;;;19.59;82.13
16255;BME280;8235;52.198;9.904;2022-08-19T02:16:30;100427.81;;;19.58;82.25
16255;BME280;8235;52.198;9.904;2022-08-19T02:18:57;100427.81;;;19.58;82.18
16255;BME280;8235;52.198;9.904;2022-08-19T02:21:26;100418.16;;;19.56;82.13
16255;BME280;8235;52.198;9.904;2022-08-19T02:23:52;100408.72;;;19.52;82.14
16255;BME280;8235;52.198;9.904;2022-08-19T02:26:21;100404.31;;;19.51;82.26
16255;BME280;8235;52.198;9.904;2022-08-19T02:28:47;100410.00;;;19.48;82.27
16255;BME280;8235;52.198;9.904;2022-08-19T02:31:16;100413.69;;;19.47;82.39
16255;BME280;8235;52.198;9.904;2022-08-19T02:33:45;100415.72;;;19.45;82.51
16255;BME280;8235;52.198;9.904;2022-08-19T02:36:13;100417.72;;;19.42;82.76
16255;BME280;8235;52.198;9.904;2022-08-19T02:38:39;100422.44;;;19.40;82.79
16255;BME280;8235;52.198;9.904;2022-08-19T02:41:07;100413.78;;;19.37;83.07
16255;BME280;8235;52.198;9.904;2022-08-19T02:43:37;100424.75;;;19.35;82.99
16255;BME280;8235;52.198;9.904;2022-08-19T02:46:12;100423.25;;;19.33;83.34
16255;BME280;8235;52.198;9.904;2022-08-19T02:48:39;100426.78;;;19.33;83.44
16255;BME280;8235;52.198;9.904;2022-08-19T02:51:06;100432.00;;;19.35;83.57
16255;BME280;8235;52.198;9.904;2022-08-19T02:53:33;100432.84;;;19.35;83.72
16255;BME280;8235;52.198;9.904;2022-08-19T02:56:00;100438.25;;;19.35;83.83
16255;BME280;8235;52.198;9.904;2022-08-19T02:58:26;100438.09;;;19.37;83.65
16255;BME280;8235;52.198;9.904;2022-08-19T03:00:55;100437.94;;;19.38;83.82
16255;BME280;8235;52.198;9.904;2022-08-19T03:03:22;100437.09;;;19.38;83.62
16255;BME280;8235;52.198;9.904;2022-08-19T03:05:49;100439.78;;;19.38;83.62
16255;BME280;8235;52.198;9.904;2022-08-19T03:08:17;100437.94;;;19.38;83.62
16255;BME280;8235;52.198;9.904;2022-08-19T03:10:46;100435.25;;;19.38;83.55
16255;BME280;8235;52.198;9.904;2022-08-19T03:13:15;100433.38;;;19.39;83.72
16255;BME280;8235;52.198;9.904;2022-08-19T03:15:45;100441.50;;;19.39;83.87
16255;BME280;8235;52.198;9.904;2022-08-19T03:18:13;100451.28;;;19.40;83.72
16255;BME280;8235;52.198;9.904;2022-08-19T03:20:41;100451.28;;;19.40;83.58
16255;BME280;8235;52.198;9.904;2022-08-19T03:23:08;100450.28;;;19.41;83.84
16255;BME280;8235;52.198;9.904;2022-08-19T03:25:38;100449.13;;;19.43;83.78
16255;BME280;8235;52.198;9.904;2022-08-19T03:28:06;100448.13;;;19.45;83.93
16255;BME280;8235;52.198;9.904;2022-08-19T03:30:32;100440.03;;;19.45;83.61
16255;BME280;8235;52.198;9.904;2022-08-19T03:32:59;100436.31;;;19.46;83.46
16255;BME280;8235;52.198;9.904;2022-08-19T03:35:26;100438.16;;;19.45;83.62
16255;BME280;8235;52.198;9.904;2022-08-19T03:37:52;100440.72;;;19.47;83.60
16255;BME280;8235;52.198;9.904;2022-08-19T03:40:19;100443.41;;;19.47;83.70
16255;BME280;8235;52.198;9.904;2022-08-19T03:42:47;100445.25;;;19.46;83.58
16255;BME280;8235;52.198;9.904;2022-08-19T03:45:14;100436.47;;;19.44;83.64
16255;BME280;8235;52.198;9.904;2022-08-19T03:47:41;100432.22;;;19.41;83.86
16255;BME280;8235;52.198;9.904;2022-08-19T03:50:08;100444.03;;;19.40;83.88
16255;BME280;8235;52.198;9.904;2022-08-19T03:52:35;100432.53;;;19.38;84.08
16255;BME280;8235;52.198;9.904;2022-08-19T03:55:02;100437.94;;;19.38;84.28
16255;BME280;8235;52.198;9.904;2022-08-19T03:57:28;100437.25;;;19.36;84.53
16255;BME280;8235;52.198;9.904;2022-08-19T03:59:56;100437.25;;;19.36;84.66
16255;BME280;8235;52.198;9.904;2022-08-19T04:02:23;100439.94;;;19.36;84.75
16255;BME280;8235;52.198;9.904;2022-08-19T04:04:53;100434.69;;;19.35;84.73
16255;BME280;8235;52.198;9.904;2022-08-19T04:07:19;100455.31;;;19.36;84.93
16255;BME280;8235;52.198;9.904;2022-08-19T04:09:46;100451.94;;;19.34;85.36
16255;BME280;8235;52.198;9.904;2022-08-19T04:12:13;100452.09;;;19.32;85.11
16255;BME280;8235;52.198;9.904;2022-08-19T04:14:40;100447.69;;;19.31;85.20
16255;BME280;8235;52.198;9.904;2022-08-19T04:19:36;100438.22;;;19.27;85.41
16255;BME280;8235;52.198;9.904;2022-08-19T04:22:04;100434.81;;;19.25;85.52
16255;BME280;8235;52.198;9.904;2022-08-19T04:24:34;100433.44;;;19.21;85.66
16255;BME280;8235;52.198;9.904;2022-08-19T04:27:02;100448.94;;;19.19;85.94
16255;BME280;8235;52.198;9.904;2022-08-19T04:29:29;100444.72;;;19.17;86.16
16255;BME280;8235;52.198;9.904;2022-08-19T04:31:57;100460.09;;;19.16;86.28
16255;BME280;8235;52.198;9.904;2022-08-19T04:34:27;100462.94;;;19.15;86.19
16255;BME280;8235;52.198;9.904;2022-08-19T04:36:57;100464.09;;;19.12;86.32
16255;BME280;8235;52.198;9.904;2022-08-19T04:39:26;100459.69;;;19.11;86.48
16255;BME280;8235;52.198;9.904;2022-08-19T04:42:15;100467.78;;;19.11;86.71
16255;BME280;8235;52.198;9.904;2022-08-19T04:45:00;100465.09;;;19.11;86.56
16255;BME280;8235;52.198;9.904;2022-08-19T04:47:28;100465.94;;;19.12;86.76
16255;BME280;8235;52.198;9.904;2022-08-19T04:49:58;100467.78;;;19.11;86.77
16255;BME280;8235;52.198;9.904;2022-08-19T04:52:26;100470.50;;;19.11;86.49
16255;BME280;8235;52.198;9.904;2022-08-19T04:54:53;100468.78;;;19.10;86.47
16255;BME280;8235;52.198;9.904;2022-08-19T04:57:20;100470.66;;;19.10;86.42
16255;BME280;8235;52.198;9.904;2022-08-19T04:59:47;100469.94;;;19.07;86.34
16255;BME280;8235;52.198;9.904;2022-08-19T05:02:14;100463.00;;;19.05;86.13
16255;BME280;8235;52.198;9.904;2022-08-19T05:04:40;100455.75;;;19.05;86.30
16255;BME280;8235;52.198;9.904;2022-08-19T05:07:08;100463.84;;;19.05;86.36
16255;BME280;8235;52.198;9.904;2022-08-19T05:09:36;100455.91;;;19.04;86.40
16255;BME280;8235;52.198;9.904;2022-08-19T05:12:03;100450.50;;;19.04;86.86
16255;BME280;8235;52.198;9.904;2022-08-19T05:14:30;100447.13;;;19.02;86.44
16255;BME280;8235;52.198;9.904;2022-08-19T05:16:57;100456.91;;;19.03;86.15
16255;BME280;8235;52.198;9.904;2022-08-19T05:19:23;100457.22;;;19.00;86.21
16255;BME280;8235;52.198;9.904;2022-08-19T05:22:07;100454.88;;;18.97;86.17
16255;BME280;8235;52.198;9.904;2022-08-19T05:24:53;100450.63;;;18.94;86.03
16255;BME280;8235;52.198;9.904;2022-08-19T05:27:20;100449.94;;;18.92;85.91
16255;BME280;8235;52.198;9.904;2022-08-19T05:29:46;100450.06;;;18.91;86.27
16255;BME280;8235;52.198;9.904;2022-08-19T05:32:13;100459.88;;;18.92;86.38
16255;BME280;8235;52.198;9.904;2022-08-19T05:34:39;100462.56;;;18.92;86.29
16255;BME280;8235;52.198;9.904;2022-08-19T05:37:06;100467.97;;;18.92;86.27
16255;BME280;8235;52.198;9.904;2022-08-19T05:39:35;100470.66;;;18.92;86.36
16255;BME280;8235;52.198;9.904;2022-08-19T05:42:06;100476.91;;;18.92;86.26
16255;BME280;8235;52.198;9.904;2022-08-19T05:44:36;100469.50;;;18.94;86.33
16255;BME280;8235;52.198;9.904;2022-08-19T05:47:06;100458.72;;;18.94;86.08
16255;BME280;8235;52.198;9.904;2022-08-19T05:49:34;100462.25;;;18.95;86.04
16255;BME280;8235;52.198;9.904;2022-08-19T05:52:02;100467.50;;;18.96;86.40
16255;BME280;8235;52.198;9.904;2022-08-19T05:54:29;100474.41;;;18.99;85.93
16255;BME280;8235;52.198;9.904;2022-08-19T05:56:56;100472.41;;;19.01;85.78
16255;BME280;8235;52.198;9.904;2022-08-19T05:59:24;100474.97;;;19.02;85.63
16255;BME280;8235;52.198;9.904;2022-08-19T06:01:52;100472.97;;;19.04;85.34
16255;BME280;8235;52.198;9.904;2022-08-19T06:04:22;100467.41;;;19.06;85.26
16255;BME280;8235;52.198;9.904;2022-08-19T06:06:51;100479.22;;;19.05;84.93
16255;BME280;8235;52.198;9.904;2022-08-19T06:09:20;100460.31;;;19.05;84.84
16255;BME280;8235;52.198;9.904;2022-08-19T06:11:48;100465.56;;;19.06;84.75
16255;BME280;8235;52.198;9.904;2022-08-19T06:14:20;100474.50;;;19.07;84.49
16255;BME280;8235;52.198;9.904;2022-08-19T06:16:49;100478.03;;;19.07;84.44
16255;BME280;8235;52.198;9.904;2022-08-19T06:19:18;100483.59;;;19.06;84.19
16255;BME280;8235;52.198;9.904;2022-08-19T06:21:47;100486.44;;;19.04;84.20
16255;BME280;8235;52.198;9.904;2022-08-19T06:24:17;100494.56;;;19.04;84.10
16255;BME280;8235;52.198;9.904;2022-08-19T06:26:47;100497.25;;;19.04;84.02
16255;BME280;8235;52.198;9.904;2022-08-19T06:29:15;100499.94;;;19.04;84.25
16255;BME280;8235;52.198;9.904;2022-08-19T06:31:44;100502.81;;;19.03;84.15
16255;BME280;8235;52.198;9.904;2022-08-19T06:34:12;100499.09;;;19.04;84.03
16255;BME280;8235;52.198;9.904;2022-08-19T06:36:42;100495.72;;;19.02;83.79
16255;BME280;8235;52.198;9.904;2022-08-19T06:39:12;100498.72;;;18.99;83.97
16255;BME280;8235;52.198;9.904;2022-08-19T06:41:40;100498.03;;;18.97;83.72
16255;BME280;8235;52.198;9.904;2022-08-19T06:44:08;100505.44;;;18.95;83.61
16255;BME280;8235;52.198;9.904;2022-08-19T06:46:35;100504.59;;;18.94;83.73
16255;BME280;8235;52.198;9.904;2022-08-19T06:49:02;100507.44;;;18.93;83.99
16255;BME280;8235;52.198;9.904;2022-08-19T06:51:30;100506.59;;;18.92;83.93
16255;BME280;8235;52.198;9.904;2022-08-19T06:53:59;100511.16;;;18.92;83.87
16255;BME280;8235;52.198;9.904;2022-08-19T06:56:29;100528.19;;;18.92;83.79
16255;BME280;8235;52.198;9.904;2022-08-19T06:58:59;100528.03;;;18.94;83.94
16255;BME280;8235;52.198;9.904;2022-08-19T07:01:25;100532.13;;;18.98;84.17
16255;BME280;8235;52.198;9.904;2022-08-19T07:03:52;100535.50;;;19.00;83.82
16255;BME280;8235;52.198;9.904;2022-08-19T07:06:19;100528.25;;;19.00;83.67
16255;BME280;8235;52.198;9.904;2022-08-19T07:08:47;100537.88;;;19.03;83.41
16255;BME280;8235;52.198;9.904;2022-08-19T07:11:15;100536.88;;;19.04;83.36
16255;BME280;8235;52.198;9.904;2022-08-19T07:13:43;100541.97;;;19.07;83.19
16255;BME280;8235;52.198;9.904;2022-08-19T07:16:13;100544.53;;;19.08;83.02
16255;BME280;8235;52.198;9.904;2022-08-19T07:18:40;100556.72;;;19.13;83.03
16255;BME280;8235;52.198;9.904;2022-08-19T07:21:09;100552.72;;;19.17;82.83
16255;BME280;8235;52.198;9.904;2022-08-19T07:23:36;100560.47;;;19.20;82.61
16255;BME280;8235;52.198;9.904;2022-08-19T07:26:06;100563.72;;;19.23;82.09
16255;BME280;8235;52.198;9.904;2022-08-19T07:28:32;100565.44;;;19.24;81.87
16255;BME280;8235;52.198;9.904;2022-08-19T07:31:00;100563.56;;;19.25;81.68
16255;BME280;8235;52.198;9.904;2022-08-19T07:33:28;100572.22;;;19.28;81.09
16255;BME280;8235;52.198;9.904;2022-08-19T07:35:57;100573.63;;;19.32;81.50
16255;BME280;8235;52.198;9.904;2022-08-19T07:38:24;100585.47;;;19.39;81.27
16255;BME280;8235;52.198;9.904;2022-08-19T07:40:51;100587.41;;;19.47;81.42
16255;BME280;8235;52.198;9.904;2022-08-19T07:43:19;100594.75;;;19.55;80.87
16255;BME280;8235;52.198;9.904;2022-08-19T07:45:50;100601.53;;;19.59;80.21
16255;BME280;8235;52.198;9.904;2022-08-19T07:48:17;100606.34;;;19.65;79.72
16255;BME280;8235;52.198;9.904;2022-08-19T07:50:43;100594.38;;;19.67;79.32
16255;BME280;8235;52.198;9.904;2022-08-19T07:53:10;100596.41;;;19.73;78.98
16255;BME280;8235;52.198;9.904;2022-08-19T07:55:38;100592.25;;;19.79;78.65
16255;BME280;8235;52.198;9.904;2022-08-19T07:58:04;100593.63;;;19.83;78.00
16255;BME280;8235;52.198;9.904;2022-08-19T08:00:32;100597.88;;;19.86;77.51
16255;BME280;8235;52.198;9.904;2022-08-19T08:03:00;100600.25;;;19.89;77.08
16255;BME280;8235;52.198;9.904;2022-08-19T08:05:26;100603.63;;;19.91;76.84
16255;BME280;8235;52.198;9.904;2022-08-19T08:08:10;100604.03;;;19.96;76.38
16255;BME280;8235;52.198;9.904;2022-08-19T08:10:54;100601.84;;;19.99;75.83
16255;BME280;8235;52.198;9.904;2022-08-19T08:13:21;100597.84;;;20.03;75.53
16255;BME280;8235;52.198;9.904;2022-08-19T08:15:49;100597.34;;;20.08;75.08
16255;BME280;8235;52.198;9.904;2022-08-19T08:18:15;100605.81;;;20.13;74.97
16255;BME280;8235;52.198;9.904;2022-08-19T08:20:42;100604.34;;;20.19;74.49
16255;BME280;8235;52.198;9.904;2022-08-19T08:23:08;100596.75;;;20.22;73.89
16255;BME280;8235;52.198;9.904;2022-08-19T08:25:52;100596.94;;;20.29;73.28
16255;BME280;8235;52.198;9.904;2022-08-19T08:28:20;100601.28;;;20.39;73.28
16255;BME280;8235;52.198;9.904;2022-08-19T08:30:49;100595.09;;;20.55;73.51
16255;BME280;8235;52.198;9.904;2022-08-19T08:33:18;100585.88;;;20.74;73.03
16255;BME280;8235;52.198;9.904;2022-08-19T08:35:44;100586.59;;;20.92;72.21
16255;BME280;8235;52.198;9.904;2022-08-19T08:38:12;100585.09;;;21.06;71.79
16255;BME280;8235;52.198;9.904;2022-08-19T08:40:44;100596.28;;;21.19;70.30
16255;BME280;8235;52.198;9.904;2022-08-19T08:43:19;100595.00;;;21.31;69.66
16255;BME280;8235;52.198;9.904;2022-08-19T08:45:57;100600.56;;;21.38;68.68
16255;BME280;8235;52.198;9.904;2022-08-19T08:48:32;100606.84;;;21.46;68.17
16255;BME280;8235;52.198;9.904;2022-08-19T08:51:04;100608.72;;;21.54;67.33
16255;BME280;8235;52.198;9.904;2022-08-19T08:53:34;100617.03;;;21.61;66.43
16255;BME280;8235;52.198;9.904;2022-08-19T08:56:03;100618.38;;;21.65;65.37
16255;BME280;8235;52.198;9.904;2022-08-19T08:58:36;100608.88;;;21.69;64.87
16255;BME280;8235;52.198;9.904;2022-08-19T09:01:10;100611.75;;;21.75;64.39
16255;BME280;8235;52.198;9.904;2022-08-19T09:03:41;100607.19;;;21.84;63.91
16255;BME280;8235;52.198;9.904;2022-08-19T09:06:13;100607.84;;;21.94;63.20
16255;BME280;8235;52.198;9.904;2022-08-19T09:08:48;100588.53;;;22.05;62.86
16255;BME280;8235;52.198;9.904;2022-08-19T09:11:19;100597.84;;;22.19;62.59
16255;BME280;8235;52.198;9.904;2022-08-19T09:14:08;100599.47;;;22.36;63.05
16255;BME280;8235;52.198;9.904;2022-08-19T09:16:38;100593.31;;;22.50;62.20
16255;BME280;8235;52.198;9.904;2022-08-19T09:19:07;100590.75;;;22.57;61.15
16255;BME280;8235;52.198;9.904;2022-08-19T09:21:34;100598.84;;;22.65;60.36
16255;BME280;8235;52.198;9.904;2022-08-19T09:24:00;100595.63;;;22.70;59.80
16255;BME280;8235;52.198;9.904;2022-08-19T09:26:27;100604.44;;;22.72;59.55
16255;BME280;8235;52.198;9.904;2022-08-19T09:28:54;100602.03;;;22.77;59.57
16255;BME280;8235;52.198;9.904;2022-08-19T09:31:25;100608.47;;;22.84;59.10
16255;BME280;8235;52.198;9.904;2022-08-19T09:33:53;100606.38;;;22.94;58.78
16255;BME280;8235;52.198;9.904;2022-08-19T09:36:23;100606.50;;;23.01;57.79
16255;BME280;8235;52.198;9.904;2022-08-19T09:38:51;100600.56;;;23.05;57.69
16255;BME280;8235;52.198;9.904;2022-08-19T09:41:19;100604.03;;;23.14;57.17
16255;BME280;8235;52.198;9.904;2022-08-19T09:43:48;100605.53;;;23.25;57.71
16255;BME280;8235;52.198;9.904;2022-08-19T09:46:18;100604.91;;;23.37;57.41
16255;BME280;8235;52.198;9.904;2022-08-19T09:48:46;100609.63;;;23.43;56.22
16255;BME280;8235;52.198;9.904;2022-08-19T09:51:17;100594.63;;;23.47;55.93
16255;BME280;8235;52.198;9.904;2022-08-19T09:53:45;100596.00;;;23.51;55.97
16255;BME280;8235;52.198;9.904;2022-08-19T09:56:12;100594.06;;;23.60;55.75
16255;BME280;8235;52.198;9.904;2022-08-19T09:58:40;100591.44;;;23.67;55.38
16255;BME280;8235;52.198;9.904;2022-08-19T10:01:07;100588.31;;;23.78;55.74
16255;BME280;8235;52.198;9.904;2022-08-19T10:03:35;100586.81;;;23.90;55.71
16255;BME280;8235;52.198;9.904;2022-08-19T10:06:04;100585.06;;;23.97;54.76
16255;BME280;8235;52.198;9.904;2022-08-19T10:08:33;100582.06;;;24.07;54.79
16255;BME280;8235;52.198;9.904;2022-08-19T10:11:01;100588.53;;;24.20;53.75
16255;BME280;8235;52.198;9.904;2022-08-19T10:13:30;100582.19;;;24.28;53.32
16255;BME280;8235;52.198;9.904;2022-08-19T10:16:03;100576.84;;;24.35;52.99
16255;BME280;8235;52.198;9.904;2022-08-19T10:18:30;100582.66;;;24.46;53.15
16255;BME280;8235;52.198;9.904;2022-08-19T10:21:05;100573.16;;;24.57;52.74
16255;BME280;8235;52.198;9.904;2022-08-19T10:23:35;100575.59;;;24.67;53.06
16255;BME280;8235;52.198;9.904;2022-08-19T10:26:03;100570.69;;;24.77;52.10
16255;BME280;8235;52.198;9.904;2022-08-19T10:28:31;100560.91;;;24.82;51.98
16255;BME280;8235;52.198;9.904;2022-08-19T10:30:58;100561.84;;;24.89;51.17
16255;BME280;8235;52.198;9.904;2022-08-19T10:33:24;100543.91;;;24.95;50.77
16255;BME280;8235;52.198;9.904;2022-08-19T10:35:58;100549.81;;;24.99;49.99
16255;BME280;8235;52.198;9.904;2022-08-19T10:38:25;100545.03;;;25.01;49.47
16255;BME280;8235;52.198;9.904;2022-08-19T10:40:53;100537.50;;;25.03;49.60
16255;BME280;8235;52.198;9.904;2022-08-19T10:43:19;100538.59;;;25.08;49.67
16255;BME280;8235;52.198;9.904;2022-08-19T10:45:51;100537.16;;;25.12;48.99
16255;BME280;8235;52.198;9.904;2022-08-19T10:48:18;100541.66;;;25.20;49.78
16255;BME280;8235;52.198;9.904;2022-08-19T10:50:44;100534.81;;;25.31;49.40
16255;BME280;8235;52.198;9.904;2022-08-19T10:53:28;100532.56;;;25.34;47.90
16255;BME280;8235;52.198;9.904;2022-08-19T10:55:56;100524.56;;;25.33;47.80
16255;BME280;8235;52.198;9.904;2022-08-19T10:58:40;100520.34;;;25.30;47.35
16255;BME280;8235;52.198;9.904;2022-08-19T11:01:06;100527.88;;;25.28;47.16
16255;BME280;8235;52.198;9.904;2022-08-19T11:03:33;100528.72;;;25.29;47.04
16255;BME280;8235;52.198;9.904;2022-08-19T11:06:01;100524.38;;;25.34;47.33
16255;BME280;8235;52.198;9.904;2022-08-19T11:08:28;100520.03;;;25.40;46.29
16255;BME280;8235;52.198;9.904;2022-08-19T11:10:59;100518.59;;;25.44;46.51
16255;BME280;8235;52.198;9.904;2022-08-19T11:13:27;100512.81;;;25.53;47.02
16255;BME280;8235;52.198;9.904;2022-08-19T11:15:58;100509.09;;;25.61;45.42
16255;BME280;8235;52.198;9.904;2022-08-19T11:18:25;100504.50;;;25.62;45.08
16255;BME280;8235;52.198;9.904;2022-08-19T11:20:51;100503.69;;;25.68;44.98
16255;BME280;8235;52.198;9.904;2022-08-19T11:23:18;100505.84;;;25.72;45.10
16255;BME280;8235;52.198;9.904;2022-08-19T11:25:45;100497.47;;;25.74;44.71
16255;BME280;8235;52.198;9.904;2022-08-19T11:28:12;100506.94;;;25.78;45.03
16255;BME280;8235;52.198;9.904;2022-08-19T11:30:39;100507.56;;;25.80;45.11
16255;BME280;8235;52.198;9.904;2022-08-19T11:33:05;100506.78;;;25.86;44.72
16255;BME280;8235;52.198;9.904;2022-08-19T11:35:32;100503.50;;;25.97;44.80
16255;BME280;8235;52.198;9.904;2022-08-19T11:37:58;100500.41;;;26.07;44.47
16255;BME280;8235;52.198;9.904;2022-08-19T11:40:26;100496.03;;;26.12;44.57
16255;BME280;8235;52.198;9.904;2022-08-19T11:42:53;100490.78;;;26.17;44.06
16255;BME280;8235;52.198;9.904;2022-08-19T11:45:24;100495.44;;;26.23;43.80
16255;BME280;8235;52.198;9.904;2022-08-19T11:47:51;100489.22;;;26.30;43.75
16255;BME280;8235;52.198;9.904;2022-08-19T11:50:18;100491.56;;;26.39;43.84
16255;BME280;8235;52.198;9.904;2022-08-19T11:52:45;100481.72;;;26.45;42.96
16255;BME280;8235;52.198;9.904;2022-08-19T11:55:12;100469.34;;;26.49;42.54
16255;BME280;8235;52.198;9.904;2022-08-19T11:57:40;100470.59;;;26.53;42.52
16255;BME280;8235;52.198;9.904;2022-08-19T12:00:09;100463.88;;;26.55;41.99
16255;BME280;8235;52.198;9.904;2022-08-19T12:02:38;100468.94;;;26.58;41.79
16255;BME280;8235;52.198;9.904;2022-08-19T12:05:05;100477.75;;;26.60;41.30
16255;BME280;8235;52.198;9.904;2022-08-19T12:07:32;100476.91;;;26.60;40.76
16255;BME280;8235;52.198;9.904;2022-08-19T12:09:59;100484.47;;;26.58;40.58
16255;BME280;8235;52.198;9.904;2022-08-19T12:12:26;100485.13;;;26.60;40.80
16255;BME280;8235;52.198;9.904;2022-08-19T12:14:52;100480.28;;;26.62;40.94
16255;BME280;8235;52.198;9.904;2022-08-19T12:17:22;100480.53;;;26.67;41.05
16255;BME280;8235;52.198;9.904;2022-08-19T12:19:50;100490.44;;;26.81;41.25
16255;BME280;8235;52.198;9.904;2022-08-19T12:22:16;100482.03;;;26.89;41.29
16255;BME280;8235;52.198;9.904;2022-08-19T12:24:43;100476.63;;;26.96;40.86
16255;BME280;8235;52.198;9.904;2022-08-19T12:27:10;100480.22;;;27.03;40.56
16255;BME280;8235;52.198;9.904;2022-08-19T12:29:36;100477.88;;;27.07;40.88
16255;BME280;8235;52.198;9.904;2022-08-19T12:32:03;100482.72;;;27.11;40.46
16255;BME280;8235;52.198;9.904;2022-08-19T12:34:30;100476.44;;;27.17;40.42
16255;BME280;8235;52.198;9.904;2022-08-19T12:37:01;100488.44;;;27.23;39.88
16255;BME280;8235;52.198;9.904;2022-08-19T12:39:30;100483.78;;;27.23;40.02
16255;BME280;8235;52.198;9.904;2022-08-19T12:41:59;100475.16;;;27.26;39.59
16255;BME280;8235;52.198;9.904;2022-08-19T12:44:26;100476.44;;;27.30;39.16
16255;BME280;8235;52.198;9.904;2022-08-19T12:46:52;100476.22;;;27.32;38.65
16255;BME280;8235;52.198;9.904;2022-08-19T12:49:19;100482.75;;;27.38;38.99
16255;BME280;8235;52.198;9.904;2022-08-19T12:51:45;100481.03;;;27.43;38.92
16255;BME280;8235;52.198;9.904;2022-08-19T12:54:13;100476.22;;;27.45;38.48
16255;BME280;8235;52.198;9.904;2022-08-19T12:56:40;100468.84;;;27.46;38.61
16255;BME280;8235;52.198;9.904;2022-08-19T12:59:07;100472.44;;;27.40;38.56
16255;BME280;8235;52.198;9.904;2022-08-19T13:01:34;100474.13;;;27.34;38.69
16255;BME280;8235;52.198;9.904;2022-08-19T13:04:00;100476.84;;;27.27;38.64
16255;BME280;8235;52.198;9.904;2022-08-19T13:06:27;100475.16;;;27.26;38.56
16255;BME280;8235;52.198;9.904;2022-08-19T13:08:54;100468.63;;;27.27;38.67